createdAt,value
2022-12-03T00:00:41.246Z,102072.72
2022-12-03T00:02:43.177Z,102069.03
2022-12-03T00:04:44.838Z,102058.59
2022-12-03T00:06:46.439Z,102060.38
2022-12-03T00:08:48.026Z,102060.72
2022-12-03T00:10:49.588Z,102055.97
2022-12-03T00:12:51.156Z,102053.25
2022-12-03T00:14:52.897Z,102073.00
2022-12-03T00:16:55.969Z,102069.38
2022-12-03T00:18:57.682Z,102061.34
2022-12-03T00:20:59.359Z,102062.47
2022-12-03T00:23:00.996Z,102058.91
2022-12-03T00:25:02.693Z,102061.41
2022-12-03T00:27:04.318Z,102050.03
2022-12-03T00:29:08.814Z,102064.19
2022-12-03T00:31:10.519Z,102071.22
2022-12-03T00:33:13.617Z,102063.22
2022-12-03T00:35:15.860Z,102062.38
2022-12-03T00:37:17.578Z,102055.28
2022-12-03T00:39:19.171Z,102070.88
2022-12-03T00:41:20.760Z,102053.53
2022-12-03T00:43:22.305Z,102064.03
2022-12-03T00:45:23.893Z,102058.53
2022-12-03T00:47:25.511Z,102051.63
2022-12-03T00:49:28.421Z,102052.69
2022-12-03T00:51:30.019Z,102053.75
2022-12-03T00:53:31.593Z,102050.09
2022-12-03T00:55:33.137Z,102049.09
2022-12-03T00:57:34.821Z,102056.94
2022-12-03T00:59:36.356Z,102051.75
2022-12-03T01:01:37.974Z,102052.59
2022-12-03T01:03:39.912Z,102055.28
2022-12-03T01:05:42.723Z,102063.31
2022-12-03T01:07:44.454Z,102055.25
2022-12-03T01:09:46.142Z,102054.41
2022-12-03T01:11:47.697Z,102062.16
2022-12-03T01:13:49.228Z,102056.94
2022-12-03T01:15:50.999Z,102058.94
2022-12-03T01:17:52.613Z,102066.84
2022-12-03T01:19:54.164Z,102066.03
2022-12-03T01:21:57.185Z,102066.03
2022-12-03T01:23:58.921Z,102059.13
2022-12-03T01:26:00.470Z,102057.31
2022-12-03T01:28:02.152Z,102069.53
2022-12-03T01:30:04.868Z,102058.88
2022-12-03T01:32:06.635Z,102056.16
2022-12-03T01:34:08.204Z,102058.94
2022-12-03T01:36:10.027Z,102050.16
2022-12-03T01:38:13.008Z,102059.97
2022-12-03T01:40:19.657Z,102065.94
2022-12-03T01:42:23.519Z,102061.56
2022-12-03T01:44:28.399Z,102060.78
2022-12-03T01:46:36.782Z,102056.28
2022-12-03T01:48:38.924Z,102061.56
2022-12-03T01:50:40.621Z,102055.31
2022-12-03T01:52:42.358Z,102054.44
2022-12-03T01:54:48.121Z,102051.03
2022-12-03T01:56:49.746Z,102052.00
2022-12-03T01:58:54.444Z,102049.44
2022-12-03T02:00:57.790Z,102057.31
2022-12-03T02:03:01.577Z,102053.81
2022-12-03T02:05:07.057Z,102048.72
2022-12-03T02:07:24.708Z,102050.53
2022-12-03T02:09:26.313Z,102053.13
2022-12-03T02:11:33.880Z,102048.72
2022-12-03T02:13:36.074Z,102050.19
2022-12-03T02:15:39.729Z,102050.19
2022-12-03T02:17:42.435Z,102050.22
2022-12-03T02:19:44.187Z,102052.13
2022-12-03T02:21:52.735Z,102048.63
2022-12-03T02:24:03.044Z,102041.50
2022-12-03T02:26:06.133Z,102050.19
2022-12-03T02:28:09.247Z,102055.59
2022-12-03T02:30:12.559Z,102047.00
2022-12-03T02:32:14.191Z,102055.59
2022-12-03T02:34:37.594Z,102051.19
2022-12-03T02:36:39.574Z,102036.44
2022-12-03T02:38:42.988Z,102048.63
2022-12-03T02:40:46.918Z,102049.56
2022-12-03T02:42:54.072Z,102055.50
2022-12-03T02:45:02.031Z,102048.75
2022-12-03T02:47:06.579Z,102039.69
2022-12-03T02:49:08.056Z,102053.53
2022-12-03T02:51:10.819Z,102050.81
2022-12-03T02:53:17.053Z,102051.81
2022-12-03T02:55:19.213Z,102047.47
2022-12-03T02:57:21.212Z,102043.84
2022-12-03T02:59:24.570Z,102050.75
2022-12-03T03:01:26.616Z,102051.84
2022-12-03T03:03:30.675Z,102051.72
2022-12-03T03:05:33.326Z,102050.09
2022-12-03T03:07:36.475Z,102046.38
2022-12-03T03:09:38.135Z,102042.75
2022-12-03T03:11:39.730Z,102044.66
2022-12-03T03:13:41.701Z,102041.22
2022-12-03T03:15:44.946Z,102032.47
2022-12-03T03:17:46.726Z,102047.31
2022-12-03T03:19:48.415Z,102041.31
2022-12-03T03:21:50.126Z,102037.97
2022-12-03T03:23:51.669Z,102038.88
2022-12-03T03:25:58.349Z,102042.44
2022-12-03T03:27:59.965Z,102039.63
2022-12-03T03:30:01.611Z,102023.06
2022-12-03T03:32:05.222Z,102035.47
2022-12-03T03:34:07.161Z,102034.63
2022-12-03T03:36:09.116Z,102031.03
2022-12-03T03:38:10.926Z,102030.88
2022-12-03T03:40:12.588Z,102027.47
2022-12-03T03:42:14.275Z,102030.13
2022-12-03T03:44:15.942Z,102027.31
2022-12-03T03:46:19.183Z,102026.25
2022-12-03T03:48:22.686Z,102027.28
2022-12-03T03:50:25.047Z,102025.31
2022-12-03T03:52:26.658Z,102020.31
2022-12-03T03:54:28.420Z,102019.44
2022-12-03T03:56:30.713Z,102023.84
2022-12-03T03:58:32.405Z,102022.91
2022-12-03T04:00:35.276Z,102016.09
2022-12-03T04:02:37.821Z,102016.00
2022-12-03T04:04:40.774Z,102009.84
2022-12-03T04:06:42.348Z,102011.66
2022-12-03T04:08:43.978Z,102012.59
2022-12-03T04:10:45.558Z,102002.22
2022-12-03T04:12:47.120Z,102008.31
2022-12-03T04:14:48.707Z,102000.34
2022-12-03T04:16:50.325Z,101999.50
2022-12-03T04:18:51.975Z,102002.09
2022-12-03T04:20:54.951Z,102003.81
2022-12-03T04:22:56.513Z,102003.94
2022-12-03T04:24:58.155Z,102001.41
2022-12-03T04:26:59.723Z,101991.94
2022-12-03T04:29:01.304Z,101989.25
2022-12-03T04:31:03.285Z,101998.59
2022-12-03T04:33:04.884Z,101990.06
2022-12-03T04:35:07.116Z,101992.75
2022-12-03T04:37:10.606Z,101992.94
2022-12-03T04:39:12.197Z,101989.44
2022-12-03T04:41:13.705Z,101982.50
2022-12-03T04:43:15.310Z,102000.63
2022-12-03T04:45:16.883Z,101996.25
2022-12-03T04:47:20.655Z,101997.16
2022-12-03T04:49:22.521Z,101986.56
2022-12-03T04:51:23.925Z,101989.34
2022-12-03T04:53:26.899Z,101989.34
2022-12-03T04:55:28.438Z,101990.94
2022-12-03T04:57:30.056Z,101990.97
2022-12-03T04:59:32.572Z,101983.16
2022-12-03T05:01:34.193Z,101988.38
2022-12-03T05:03:35.801Z,101987.31
2022-12-03T05:05:37.752Z,101993.53
2022-12-03T05:07:39.589Z,101977.91
2022-12-03T05:09:42.757Z,101987.31
2022-12-03T05:11:44.480Z,101977.78
2022-12-03T05:13:46.049Z,101975.22
2022-12-03T05:15:47.689Z,101961.03
2022-12-03T05:17:49.250Z,101960.28
2022-12-03T05:19:50.800Z,101968.22
2022-12-03T05:21:52.480Z,101972.50
2022-12-03T05:23:54.249Z,101974.91
2022-12-03T05:25:57.420Z,101964.13
2022-12-03T05:27:59.083Z,101971.19
2022-12-03T05:30:00.892Z,101972.91
2022-12-03T05:32:02.491Z,101972.91
2022-12-03T05:34:04.062Z,101975.56
2022-12-03T05:36:05.986Z,101975.66
2022-12-03T05:38:07.421Z,101976.66
2022-12-03T05:40:10.513Z,101973.06
2022-12-03T05:42:13.452Z,101966.88
2022-12-03T05:44:20.162Z,101970.56
2022-12-03T05:46:22.321Z,101966.09
2022-12-03T05:48:23.904Z,101968.00
2022-12-03T05:50:28.481Z,101965.66
2022-12-03T05:52:30.412Z,101957.91
2022-12-03T05:54:31.823Z,101962.25
2022-12-03T05:56:33.422Z,101961.16
2022-12-03T05:58:36.442Z,101960.97
2022-12-03T06:00:42.507Z,101947.72
2022-12-03T06:02:44.868Z,101966.16
2022-12-03T06:04:46.384Z,101957.47
2022-12-03T06:06:47.983Z,101957.50
2022-12-03T06:08:49.611Z,101960.91
2022-12-03T06:10:51.421Z,101954.06
2022-12-03T06:12:53.215Z,101958.63
2022-12-03T06:14:56.504Z,101961.97
2022-12-03T06:16:58.234Z,101965.47
2022-12-03T06:18:59.930Z,101970.56
2022-12-03T06:21:01.576Z,101964.38
2022-12-03T06:23:03.430Z,101969.72
2022-12-03T06:25:07.379Z,101956.72
2022-12-03T06:27:09.095Z,101957.69
2022-12-03T06:29:10.775Z,101958.69
2022-12-03T06:31:14.213Z,101964.63
2022-12-03T06:33:15.836Z,101961.22
2022-12-03T06:35:17.437Z,101964.56
2022-12-03T06:37:19.014Z,101964.56
2022-12-03T06:39:20.699Z,101959.38
2022-12-03T06:41:22.362Z,101970.44
2022-12-03T06:43:23.958Z,101961.03
2022-12-03T06:45:25.530Z,101967.84
2022-12-03T06:47:29.035Z,101967.16
2022-12-03T06:49:30.678Z,101966.25
2022-12-03T06:51:32.258Z,101961.03
2022-12-03T06:53:33.878Z,101961.78
2022-12-03T06:55:35.503Z,101963.75
2022-12-03T06:57:37.120Z,101967.03
2022-12-03T06:59:38.721Z,101954.88
2022-12-03T07:01:40.498Z,101962.75
2022-12-03T07:03:43.452Z,101946.88
2022-12-03T07:05:45.055Z,101967.88
2022-12-03T07:07:46.642Z,101961.69
2022-12-03T07:09:48.200Z,101965.16
2022-12-03T07:11:49.795Z,101969.56
2022-12-03T07:13:51.308Z,101965.97
2022-12-03T07:15:52.865Z,101966.16
2022-12-03T07:17:54.501Z,101962.78
2022-12-03T07:19:57.434Z,101962.75
2022-12-03T07:21:58.950Z,101962.59
2022-12-03T07:24:00.641Z,101966.09
2022-12-03T07:26:02.190Z,101963.50
2022-12-03T07:28:04.158Z,101973.25
2022-12-03T07:30:07.213Z,101963.47
2022-12-03T07:32:08.708Z,101962.66
2022-12-03T07:34:10.277Z,101967.06
2022-12-03T07:36:13.237Z,101963.50
2022-12-03T07:38:14.850Z,101964.56
2022-12-03T07:40:16.510Z,101961.97
2022-12-03T07:42:18.151Z,101970.81
2022-12-03T07:44:19.687Z,101959.59
2022-12-03T07:46:21.284Z,101955.41
2022-12-03T07:48:22.898Z,101957.97
2022-12-03T07:50:24.451Z,101958.97
2022-12-03T07:52:27.369Z,101953.03
2022-12-03T07:54:28.996Z,101966.06
2022-12-03T07:56:30.571Z,101958.28
2022-12-03T07:58:32.118Z,101958.34
2022-12-03T08:00:33.815Z,101949.56
2022-12-03T08:02:35.493Z,101958.22
2022-12-03T08:04:37.081Z,101944.19
2022-12-03T08:06:38.719Z,101954.50
2022-12-03T08:08:41.759Z,101936.06
2022-12-03T08:10:43.458Z,101943.84
2022-12-03T08:12:45.270Z,101943.00
2022-12-03T08:14:46.820Z,101951.53
2022-12-03T08:16:48.463Z,101942.97
2022-12-03T08:18:51.140Z,101945.44
2022-12-03T08:20:52.703Z,101936.66
2022-12-03T08:22:55.578Z,101930.59
2022-12-03T08:24:59.187Z,101939.28
2022-12-03T08:27:00.744Z,101939.44
2022-12-03T08:29:02.325Z,101921.88
2022-12-03T08:31:12.634Z,101929.81
2022-12-03T08:33:24.564Z,101932.66
2022-12-03T08:35:29.966Z,101932.66
2022-12-03T08:37:31.593Z,101924.78
2022-12-03T08:39:34.955Z,101938.78
2022-12-03T08:41:37.884Z,101937.06
2022-12-03T08:43:39.494Z,101933.50
2022-12-03T08:45:42.116Z,101930.13
2022-12-03T08:47:43.674Z,101942.47
2022-12-03T08:49:49.886Z,101937.16
2022-12-03T08:51:55.756Z,101936.34
2022-12-03T08:54:01.938Z,101930.19
2022-12-03T08:56:12.376Z,101927.72
2022-12-03T08:58:22.575Z,101928.84
2022-12-03T09:00:24.779Z,101923.41
2022-12-03T09:02:31.681Z,101922.34
2022-12-03T09:04:44.519Z,101933.81
2022-12-03T09:06:46.451Z,101932.06
2022-12-03T09:08:47.852Z,101930.22
2022-12-03T09:10:49.415Z,101925.03
2022-12-03T09:12:51.067Z,101931.19
2022-12-03T09:14:54.402Z,101919.13
2022-12-03T09:16:56.477Z,101934.00
2022-12-03T09:18:58.296Z,101924.31
2022-12-03T09:20:59.823Z,101930.34
2022-12-03T09:23:01.339Z,101921.66
2022-12-03T09:25:02.994Z,101911.28
2022-12-03T09:27:04.590Z,101917.56
2022-12-03T09:29:10.582Z,101914.94
2022-12-03T09:31:15.295Z,101920.22
2022-12-03T09:33:17.039Z,101914.94
2022-12-03T09:35:19.042Z,101909.81
2022-12-03T09:37:20.688Z,101907.13
2022-12-03T09:39:22.401Z,101908.63
2022-12-03T09:41:25.055Z,101904.38
2022-12-03T09:43:43.350Z,101906.13
2022-12-03T09:45:49.291Z,101907.09
2022-12-03T09:47:52.779Z,101893.03
2022-12-03T09:49:56.175Z,101912.13
2022-12-03T09:52:00.556Z,101900.09
2022-12-03T09:54:07.127Z,101904.22
2022-12-03T09:56:23.168Z,101893.72
2022-12-03T09:58:31.716Z,101902.56
2022-12-03T10:00:35.976Z,101894.72
2022-12-03T10:02:37.545Z,101897.31
2022-12-03T10:04:40.603Z,101892.91
2022-12-03T10:06:45.866Z,101892.13
2022-12-03T10:08:49.943Z,101874.72
2022-12-03T10:10:54.528Z,101895.69
2022-12-03T10:12:56.294Z,101876.34
2022-12-03T10:14:57.894Z,101881.63
2022-12-03T10:16:59.925Z,101891.88
2022-12-03T10:19:01.584Z,101876.88
2022-12-03T10:21:17.881Z,101877.25
2022-12-03T10:23:21.513Z,101881.94
2022-12-03T10:25:23.529Z,101876.72
2022-12-03T10:27:30.568Z,101879.63
2022-12-03T10:29:34.699Z,101860.53
2022-12-03T10:31:36.675Z,101868.41
2022-12-03T10:33:39.803Z,101874.50
2022-12-03T10:35:41.487Z,101865.66
2022-12-03T10:38:04.659Z,101875.22
2022-12-03T10:40:10.967Z,101873.44
2022-12-03T10:42:14.687Z,101876.72
2022-12-03T10:44:18.620Z,101874.03
2022-12-03T10:46:21.621Z,101860.88
2022-12-03T10:48:25.212Z,101867.00
2022-12-03T10:50:26.850Z,101857.28
2022-12-03T10:52:28.753Z,101861.69
2022-12-03T10:54:33.455Z,101868.66
2022-12-03T10:56:35.696Z,101856.25
2022-12-03T10:58:39.569Z,101866.84
2022-12-03T11:00:41.228Z,101867.59
2022-12-03T11:02:42.835Z,101865.88
2022-12-03T11:04:44.489Z,101854.50
2022-12-03T11:06:46.154Z,101845.06
2022-12-03T11:08:56.258Z,101866.97
2022-12-03T11:11:02.242Z,101869.66
2022-12-03T11:13:41.278Z,101855.66
2022-12-03T11:15:45.195Z,101851.25
2022-12-03T11:17:49.792Z,101850.38
2022-12-03T11:19:52.300Z,101848.53
2022-12-03T11:22:25.468Z,101847.63
2022-12-03T11:24:27.008Z,101845.13
2022-12-03T11:27:22.187Z,101833.00
2022-12-03T11:29:50.544Z,101832.22
2022-12-03T11:31:52.364Z,101839.19
2022-12-03T11:34:13.923Z,101832.16
2022-12-03T11:36:16.177Z,101825.19
2022-12-03T11:38:52.837Z,101826.09
2022-12-03T11:41:08.355Z,101827.84
2022-12-03T11:43:10.073Z,101820.09
2022-12-03T11:45:29.190Z,101817.41
2022-12-03T11:47:32.512Z,101816.59
2022-12-03T11:49:49.432Z,101817.50
2022-12-03T11:51:51.548Z,101813.13
2022-12-03T11:53:56.662Z,101814.00
2022-12-03T11:56:04.704Z,101821.03
2022-12-03T11:58:14.647Z,101821.00
2022-12-03T12:00:23.864Z,101812.25
2022-12-03T12:02:26.069Z,101824.47
2022-12-03T12:04:31.332Z,101817.41
2022-12-03T12:06:42.240Z,101815.63
2022-12-03T12:08:56.490Z,101818.28
2022-12-03T12:10:59.071Z,101824.47
2022-12-03T12:13:00.847Z,101815.75
2022-12-03T12:15:42.831Z,101817.53
2022-12-03T12:17:44.510Z,101813.97
2022-12-03T12:19:51.043Z,101801.66
2022-12-03T12:22:11.723Z,101812.16
2022-12-03T12:24:36.003Z,101812.16
2022-12-03T12:26:37.994Z,101807.81
2022-12-03T12:28:39.960Z,101816.59
2022-12-03T12:30:43.184Z,101802.56
2022-12-03T12:32:46.644Z,101799.88
2022-12-03T12:34:50.075Z,101805.16
2022-12-03T12:36:52.050Z,101799.94
2022-12-03T12:38:53.610Z,101792.94
2022-12-03T12:40:55.117Z,101795.56
2022-12-03T12:42:58.167Z,101784.19
2022-12-03T12:45:13.276Z,101798.94
2022-12-03T12:47:16.345Z,101785.88
2022-12-03T12:49:18.208Z,101783.28
2022-12-03T12:51:19.917Z,101792.06
2022-12-03T12:53:24.587Z,101728.13
2022-12-03T12:55:26.265Z,101754.41
2022-12-03T12:57:27.941Z,101781.44
2022-12-03T12:59:29.495Z,101782.38
2022-12-03T13:01:32.157Z,101782.31
2022-12-03T13:03:38.830Z,101769.25
2022-12-03T13:05:42.922Z,101768.41
2022-12-03T13:07:45.437Z,101766.66
2022-12-03T13:09:47.016Z,101772.78
2022-12-03T13:11:52.914Z,101769.31
2022-12-03T13:13:54.603Z,101763.25
2022-12-03T13:16:02.565Z,101755.31
2022-12-03T13:18:20.196Z,101757.09
2022-12-03T13:20:23.331Z,101760.59
2022-12-03T13:22:24.933Z,101759.81
2022-12-03T13:24:32.345Z,101747.50
2022-12-03T13:26:39.604Z,101743.91
2022-12-03T13:28:41.898Z,101747.41
2022-12-03T13:30:43.516Z,101750.06
2022-12-03T13:32:45.110Z,101763.09
2022-12-03T13:34:47.388Z,101749.06
2022-12-03T13:36:57.565Z,101756.97
2022-12-03T13:39:00.202Z,101757.75
2022-12-03T13:41:03.008Z,101761.31
2022-12-03T13:43:09.899Z,101756.06
2022-12-03T13:45:32.661Z,101756.09
2022-12-03T13:47:36.740Z,101757.78
2022-12-03T13:49:38.298Z,101746.41
2022-12-03T13:51:40.286Z,101748.88
2022-12-03T13:53:43.315Z,101747.16
2022-12-03T13:55:47.247Z,101750.75
2022-12-03T13:57:48.760Z,101749.03
2022-12-03T13:59:50.369Z,101747.19
2022-12-03T14:01:52.075Z,101757.63
2022-12-03T14:03:53.730Z,101748.03
2022-12-03T14:05:55.399Z,101743.66
2022-12-03T14:07:57.022Z,101750.63
2022-12-03T14:09:59.984Z,101757.59
2022-12-03T14:12:01.551Z,101728.78
2022-12-03T14:14:03.331Z,101750.75
2022-12-03T14:16:05.408Z,101753.31
2022-12-03T14:18:07.125Z,101748.91
2022-12-03T14:20:09.521Z,101748.13
2022-12-03T14:22:11.434Z,101755.09
2022-12-03T14:24:12.770Z,101753.31
2022-12-03T14:26:15.716Z,101757.78
2022-12-03T14:28:17.223Z,101753.41
2022-12-03T14:30:19.161Z,101754.28
2022-12-03T14:32:20.729Z,101745.44
2022-12-03T14:34:22.268Z,101745.59
2022-12-03T14:36:23.881Z,101740.34
2022-12-03T14:38:25.451Z,101747.28
2022-12-03T14:40:27.071Z,101749.97
2022-12-03T14:42:31.902Z,101738.66
2022-12-03T14:44:33.471Z,101742.09
2022-12-03T14:46:35.027Z,101740.22
2022-12-03T14:48:36.675Z,101748.19
2022-12-03T14:50:38.271Z,101749.91
2022-12-03T14:52:39.918Z,101745.53
2022-12-03T14:54:42.794Z,101749.94
2022-12-03T14:56:44.626Z,101749.06
2022-12-03T14:58:47.609Z,101755.16
2022-12-03T15:00:49.214Z,101749.88
2022-12-03T15:02:50.943Z,101741.97
2022-12-03T15:04:52.527Z,101748.06
2022-12-03T15:06:54.146Z,101755.16
2022-12-03T15:08:55.741Z,101752.56
2022-12-03T15:10:57.403Z,101755.19
2022-12-03T15:12:59.076Z,101763.94
2022-12-03T15:15:02.080Z,101756.13
2022-12-03T15:17:03.758Z,101755.25
2022-12-03T15:19:05.494Z,101754.38
2022-12-03T15:21:07.043Z,101769.16
2022-12-03T15:23:13.945Z,101751.72
2022-12-03T15:25:15.984Z,101758.69
2022-12-03T15:27:17.601Z,101759.56
2022-12-03T15:29:20.631Z,101758.72
2022-12-03T15:31:23.752Z,101753.50
2022-12-03T15:33:25.358Z,101755.22
2022-12-03T15:35:26.940Z,101754.31
2022-12-03T15:37:28.579Z,101754.34
2022-12-03T15:39:30.087Z,101744.75
2022-12-03T15:41:31.664Z,101747.38
2022-12-03T15:43:33.310Z,101747.41
2022-12-03T15:45:35.463Z,101746.50
2022-12-03T15:47:38.411Z,101747.41
2022-12-03T15:49:40.057Z,101745.69
2022-12-03T15:51:41.624Z,101752.66
2022-12-03T15:53:43.308Z,101747.41
2022-12-03T15:55:44.965Z,101742.16
2022-12-03T15:57:46.617Z,101742.13
2022-12-03T15:59:48.183Z,101742.09
2022-12-03T16:01:49.841Z,101743.00
2022-12-03T16:03:52.773Z,101744.72
2022-12-03T16:05:54.395Z,101745.63
2022-12-03T16:07:56.004Z,101738.66
2022-12-03T16:09:57.651Z,101746.53
2022-12-03T16:11:59.146Z,101743.03
2022-12-03T16:14:00.781Z,101734.34
2022-12-03T16:16:02.457Z,101736.06
2022-12-03T16:18:04.350Z,101741.31
2022-12-03T16:20:08.038Z,101732.59
2022-12-03T16:22:09.645Z,101738.69
2022-12-03T16:24:11.264Z,101743.91
2022-12-03T16:26:12.836Z,101729.06
2022-12-03T16:28:14.412Z,101735.19
2022-12-03T16:30:16.367Z,101735.19
2022-12-03T16:32:18.111Z,101740.44
2022-12-03T16:34:22.209Z,101738.66
2022-12-03T16:36:25.677Z,101736.06
2022-12-03T16:38:27.464Z,101733.44
2022-12-03T16:40:29.191Z,101735.22
2022-12-03T16:42:31.230Z,101734.34
2022-12-03T16:44:33.213Z,101737.81
2022-12-03T16:46:34.963Z,101734.31
2022-12-03T16:48:36.904Z,101735.25
2022-12-03T16:50:38.503Z,101744.09
2022-12-03T16:52:41.625Z,101734.47
2022-12-03T16:54:43.564Z,101730.09
2022-12-03T16:56:45.491Z,101744.06
2022-12-03T16:58:47.010Z,101746.63
2022-12-03T17:00:48.847Z,101737.03
2022-12-03T17:02:50.466Z,101741.38
2022-12-03T17:04:52.189Z,101739.63
2022-12-03T17:06:54.192Z,101742.22
2022-12-03T17:08:57.325Z,101726.47
2022-12-03T17:10:59.164Z,101740.44
2022-12-03T17:13:09.366Z,101736.91
2022-12-03T17:15:12.225Z,101737.81
2022-12-03T17:17:13.743Z,101738.69
2022-12-03T17:19:15.589Z,101735.25
2022-12-03T17:21:17.124Z,101732.63
2022-12-03T17:23:18.710Z,101736.97
2022-12-03T17:25:21.807Z,101730.00
2022-12-03T17:27:23.806Z,101728.25
2022-12-03T17:29:25.555Z,101735.25
2022-12-03T17:31:27.552Z,101730.03
2022-12-03T17:33:29.555Z,101737.00
2022-12-03T17:35:31.111Z,101729.19
2022-12-03T17:37:32.816Z,101729.16
2022-12-03T17:39:37.218Z,101729.22
2022-12-03T17:41:40.383Z,101716.09
2022-12-03T17:43:41.970Z,101723.03
2022-12-03T17:45:43.659Z,101723.09
2022-12-03T17:47:45.209Z,101728.34
2022-12-03T17:49:46.755Z,101729.16
2022-12-03T17:51:48.525Z,101716.03
2022-12-03T17:53:49.944Z,101724.78
2022-12-03T17:55:51.602Z,101726.53
2022-12-03T17:57:54.645Z,101724.78
2022-12-03T17:59:56.684Z,101723.00
2022-12-03T18:01:58.640Z,101721.28
2022-12-03T18:04:00.665Z,101723.97
2022-12-03T18:06:02.435Z,101726.53
2022-12-03T18:08:04.636Z,101723.97
2022-12-03T18:10:07.917Z,101728.34
2022-12-03T18:12:09.860Z,101718.66
2022-12-03T18:14:13.445Z,101715.16
2022-12-03T18:16:15.935Z,101714.28
2022-12-03T18:18:17.774Z,101724.84
2022-12-03T18:20:19.622Z,101716.06
2022-12-03T18:22:21.303Z,101729.22
2022-12-03T18:24:23.396Z,101722.22
2022-12-03T18:26:25.746Z,101724.84
2022-12-03T18:28:28.420Z,101731.81
2022-12-03T18:30:31.889Z,101722.16
2022-12-03T18:32:33.698Z,101722.16
2022-12-03T18:34:35.676Z,101726.53
2022-12-03T18:36:37.619Z,101721.25
2022-12-03T18:38:39.597Z,101716.91
2022-12-03T18:40:42.845Z,101719.59
2022-12-03T18:42:44.954Z,101714.31
2022-12-03T18:44:49.818Z,101721.34
2022-12-03T18:46:54.559Z,101717.84
2022-12-03T18:48:56.927Z,101716.09
2022-12-03T18:50:58.725Z,101708.22
2022-12-03T18:53:00.596Z,101706.44
2022-12-03T18:55:02.271Z,101713.44
2022-12-03T18:57:04.421Z,101709.09
2022-12-03T18:59:06.401Z,101706.47
2022-12-03T19:01:14.506Z,101717.78
2022-12-03T19:03:17.919Z,101721.28
2022-12-03T19:05:19.744Z,101718.66
2022-12-03T19:07:21.693Z,101717.78
2022-12-03T19:09:23.176Z,101721.28
2022-12-03T19:11:25.245Z,101716.94
2022-12-03T19:13:27.923Z,101717.84
2022-12-03T19:15:29.555Z,101716.97
2022-12-03T19:17:31.629Z,101719.59
2022-12-03T19:19:34.665Z,101723.88
2022-12-03T19:21:36.735Z,101716.09
2022-12-03T19:23:39.663Z,101715.19
2022-12-03T19:25:53.881Z,101716.09
2022-12-03T19:27:55.870Z,101719.59
2022-12-03T19:29:58.407Z,101725.66
2022-12-03T19:32:00.218Z,101715.16
2022-12-03T19:34:01.973Z,101720.41
2022-12-03T19:36:18.242Z,101728.25
2022-12-03T19:38:20.060Z,101728.28
2022-12-03T19:40:21.623Z,101722.16
2022-12-03T19:42:23.657Z,101723.91
2022-12-03T19:44:25.413Z,101725.66
2022-12-03T19:46:28.455Z,101718.66
2022-12-03T19:48:30.365Z,101722.13
2022-12-03T19:50:31.941Z,101723.00
2022-12-03T19:52:36.671Z,101719.47
2022-12-03T19:54:38.780Z,101724.75
2022-12-03T19:56:40.905Z,101723.00
2022-12-03T19:58:44.618Z,101723.03
2022-12-03T20:00:46.587Z,101727.41
2022-12-03T20:02:49.185Z,101727.38
2022-12-03T20:04:51.275Z,101721.25
2022-12-03T20:06:53.207Z,101723.00
2022-12-03T20:08:58.127Z,101729.13
2022-12-03T20:11:07.915Z,101728.25
2022-12-03T20:13:09.776Z,101723.88
2022-12-03T20:15:11.842Z,101716.03
2022-12-03T20:17:13.490Z,101718.66
2022-12-03T20:19:17.072Z,101715.16
2022-12-03T20:21:19.513Z,101717.75
2022-12-03T20:23:21.100Z,101710.75
2022-12-03T20:25:24.015Z,101709.00
2022-12-03T20:27:25.881Z,101714.28
2022-12-03T20:29:27.238Z,101716.03
2022-12-03T20:31:30.552Z,101718.66
2022-12-03T20:33:32.209Z,101725.66
2022-12-03T20:35:33.864Z,101723.03
2022-12-03T20:37:35.545Z,101726.59
2022-12-03T20:39:38.473Z,101725.72
2022-12-03T20:41:43.839Z,101725.75
2022-12-03T20:43:45.672Z,101728.38
2022-12-03T20:45:47.126Z,101729.25
2022-12-03T20:47:48.835Z,101728.38
2022-12-03T20:49:50.510Z,101730.13
2022-12-03T20:51:52.199Z,101732.72
2022-12-03T20:53:54.153Z,101724.84
2022-12-03T20:55:56.469Z,101729.22
2022-12-03T20:57:59.550Z,101720.47
2022-12-03T21:00:01.217Z,101723.09
2022-12-03T21:02:02.950Z,101723.97
2022-12-03T21:04:04.949Z,101726.59
2022-12-03T21:06:06.976Z,101723.97
2022-12-03T21:08:08.650Z,101721.34
2022-12-03T21:10:10.775Z,101730.97
2022-12-03T21:12:12.544Z,101731.84
2022-12-03T21:14:15.658Z,101730.13
2022-12-03T21:16:19.354Z,101724.88
2022-12-03T21:18:22.641Z,101725.75
2022-12-03T21:20:24.345Z,101725.75
2022-12-03T21:22:25.898Z,101721.38
2022-12-03T21:24:27.659Z,101723.13
2022-12-03T21:26:29.289Z,101716.13
2022-12-03T21:28:30.994Z,101710.00
2022-12-03T21:30:36.853Z,101710.00
2022-12-03T21:32:38.437Z,101707.38
2022-12-03T21:34:40.226Z,101716.13
2022-12-03T21:36:41.720Z,101712.63
2022-12-03T21:38:44.706Z,101706.50
2022-12-03T21:40:46.367Z,101705.63
2022-12-03T21:42:48.308Z,101703.00
2022-12-03T21:44:49.917Z,101708.16
2022-12-03T21:47:09.877Z,101699.50
2022-12-03T21:49:14.540Z,101689.81
2022-12-03T21:51:17.859Z,101703.78
2022-12-03T21:53:19.446Z,101703.75
2022-12-03T21:55:21.045Z,101709.91
2022-12-03T21:57:22.709Z,101703.75
2022-12-03T21:59:24.425Z,101710.75
2022-12-03T22:01:26.427Z,101705.53
2022-12-03T22:03:29.428Z,101717.78
2022-12-03T22:05:31.163Z,101703.81
2022-12-03T22:07:33.621Z,101710.81
2022-12-03T22:09:35.609Z,101703.81
2022-12-03T22:11:37.141Z,101703.81
2022-12-03T22:13:39.400Z,101696.81
2022-12-03T22:15:41.172Z,101703.78
2022-12-03T22:17:42.818Z,101695.06
2022-12-03T22:19:45.735Z,101702.06
2022-12-03T22:21:47.474Z,101702.91
2022-12-03T22:23:49.038Z,101696.78
2022-12-03T22:25:57.804Z,101693.25
2022-12-03T22:27:59.578Z,101702.00
2022-12-03T22:30:01.328Z,101704.63
2022-12-03T22:32:03.198Z,101700.28
2022-12-03T22:34:04.609Z,101693.25
2022-12-03T22:36:14.848Z,101700.25
2022-12-03T22:38:21.636Z,101694.97
2022-12-03T22:40:23.583Z,101696.75
2022-12-03T22:42:25.151Z,101693.28
2022-12-03T22:44:27.051Z,101688.03
2022-12-03T22:46:28.667Z,101687.16
2022-12-03T22:48:30.398Z,101699.41
2022-12-03T22:50:31.987Z,101681.06
2022-12-03T22:52:35.369Z,101679.31
2022-12-03T22:54:37.121Z,101674.94
2022-12-03T22:56:39.398Z,101680.19
2022-12-03T22:58:41.481Z,101677.56
2022-12-03T23:00:43.284Z,101676.69
2022-12-03T23:02:44.986Z,101672.31
2022-12-03T23:04:46.906Z,101679.31
2022-12-03T23:06:48.685Z,101681.09
2022-12-03T23:08:52.695Z,101686.34
2022-12-03T23:10:54.740Z,101667.94
2022-12-03T23:12:56.567Z,101677.56
2022-12-03T23:14:58.100Z,101681.09
2022-12-03T23:16:59.944Z,101667.97
2022-12-03T23:19:02.415Z,101671.47
2022-12-03T23:21:04.360Z,101666.19
2022-12-03T23:23:06.374Z,101656.59
2022-12-03T23:25:09.954Z,101667.09
2022-12-03T23:27:12.091Z,101666.22